Time;durP1;ratioP1;P1;durP2;ratioP2;P2;SDS_P1;SDS_P2;PMS_P1;PMS_P2;Temp;Humidity;BMP_temperature;BMP_pressure;BME280_temperature;BME280_humidity;BME280_pressure;Samples;Min_cycle;Max_cycle;Signal;HPM_P1;HPM_P2
2023/04/10 00:00:23;;;;;;;18.17;10.78;;;;;;;11.24;74.32;101307.91;1802578;78;21260;-62
2023/04/10 00:03:30;;;;;;;17.25;10.90;;;;;;;11.19;74.31;101305.30;1802826;79;21284;-61
2023/04/10 00:06:37;;;;;;;17.27;10.93;;;;;;;11.19;74.40;101308.05;1793881;79;21174;-61
2023/04/10 00:09:44;;;;;;;13.68;10.32;;;;;;;11.18;74.46;101303.59;1802873;79;21210;-61
2023/04/10 00:12:50;;;;;;;16.25;10.18;;;;;;;11.18;74.45;101307.70;1802819;78;21173;-61
2023/04/10 00:15:57;;;;;;;16.90;10.40;;;;;;;11.15;74.39;101310.73;1802633;78;21142;-62
2023/04/10 00:19:04;;;;;;;16.35;10.68;;;;;;;11.13;74.41;101315.00;1802991;79;21379;-61
2023/04/10 00:22:10;;;;;;;15.88;10.88;;;;;;;11.11;74.40;101306.59;1802784;78;21170;-62
2023/04/10 00:25:16;;;;;;;14.65;10.32;;;;;;;11.10;74.46;101304.89;1802560;79;21174;-62
2023/04/10 00:28:22;;;;;;;14.40;10.80;;;;;;;11.11;74.48;101307.97;1803038;79;21324;-62
2023/04/10 00:31:29;;;;;;;14.53;11.05;;;;;;;11.10;74.44;101299.41;1802806;79;21177;-62
2023/04/10 00:34:35;;;;;;;16.48;10.78;;;;;;;11.09;74.49;101308.13;1802620;79;21218;-63
2023/04/10 00:37:42;;;;;;;13.75;10.40;;;;;;;11.09;74.55;101304.52;1802977;79;21205;-62
2023/04/10 00:40:49;;;;;;;18.77;11.30;;;;;;;11.09;74.48;101314.11;1802452;78;21197;-62
2023/04/10 00:43:55;;;;;;;14.13;10.78;;;;;;;11.09;74.49;101311.36;1800649;79;21257;-63
2023/04/10 00:47:01;;;;;;;16.95;11.55;;;;;;;11.08;74.58;101312.39;1802900;79;21245;-62
2023/04/10 00:50:08;;;;;;;15.93;11.00;;;;;;;11.10;74.63;101306.26;1802442;79;21166;-61
2023/04/10 00:53:14;;;;;;;19.98;11.73;;;;;;;11.11;74.67;101311.58;1802950;79;21686;-62
2023/04/10 00:56:21;;;;;;;14.18;9.98;;;;;;;11.09;74.59;101309.50;1803017;79;21209;-62
2023/04/10 00:59:26;;;;;;;15.78;10.63;;;;;;;11.07;74.52;101303.83;1802729;79;21746;-62
2023/04/10 01:02:32;;;;;;;15.72;11.03;;;;;;;11.07;74.56;101306.05;1802663;78;21205;-61
2023/04/10 01:05:44;;;;;;;17.73;11.05;;;;;;;11.06;74.60;101306.20;1793866;79;21524;-62
2023/04/10 01:09:24;;;;;;;13.93;10.58;;;;;;;11.02;74.47;101301.53;1802651;79;21174;-61
2023/04/10 01:12:59;;;;;;;18.87;11.93;;;;;;;10.98;74.51;101311.59;1802556;79;21178;-60
2023/04/10 01:16:21;;;;;;;14.30;10.78;;;;;;;10.97;74.65;101303.03;1802867;78;21165;-63
2023/04/10 01:19:40;;;;;;;18.52;12.23;;;;;;;10.94;74.66;101304.19;1802576;79;21312;-62
2023/04/10 01:23:16;;;;;;;14.25;10.95;;;;;;;10.90;74.60;101298.69;1777788;78;21252;-62
2023/04/10 01:26:23;;;;;;;15.20;12.13;;;;;;;10.88;74.65;101289.75;1788978;78;21206;-61
2023/04/10 01:29:29;;;;;;;20.40;11.75;;;;;;;10.88;74.73;101294.39;1803084;79;21213;-62
2023/04/10 01:32:35;;;;;;;18.52;12.40;;;;;;;10.90;74.85;101290.97;1803784;79;21256;-63
2023/04/10 01:35:40;;;;;;;16.17;11.43;;;;;;;10.91;74.90;101287.23;1802709;79;21253;-61
2023/04/10 01:38:49;;;;;;;22.50;12.28;;;;;;;10.92;74.95;101284.33;1795710;79;21707;-62
2023/04/10 01:41:58;;;;;;;20.10;12.13;;;;;;;10.92;74.87;101287.07;1802575;79;21355;-61
2023/04/10 01:45:05;;;;;;;19.42;12.68;;;;;;;10.91;74.82;101299.55;1802799;79;21201;-61
2023/04/10 01:48:15;;;;;;;17.15;12.00;;;;;;;10.88;74.83;101293.03;1804490;79;21382;-61
2023/04/10 01:51:15;;;;;;;17.15;12.58;;;;;;;10.85;74.89;101291.94;1796065;79;21202;-60
2023/04/10 01:54:08;;;;;;;18.37;12.95;;;;;;;10.84;74.99;101299.81;1804626;79;21915;-61
2023/04/10 01:56:56;;;;;;;16.07;12.80;;;;;;;10.84;75.00;101303.92;1804274;79;21402;-60
2023/04/10 01:59:52;;;;;;;16.82;12.10;;;;;;;10.84;75.05;101303.42;1804507;79;21170;-61
2023/04/10 02:03:01;;;;;;;16.60;13.08;;;;;;;10.84;75.01;101298.45;1804462;79;21177;-61
2023/04/10 02:06:57;;;;;;;17.92;12.28;;;;;;;10.84;75.01;101308.03;1804425;79;21331;-61
2023/04/10 02:10:12;;;;;;;15.50;11.85;;;;;;;10.84;75.05;101309.40;1804435;79;21150;-60
2023/04/10 02:13:18;;;;;;;17.05;11.55;;;;;;;10.85;75.11;101305.63;1804480;78;21185;-60
2023/04/10 02:16:24;;;;;;;18.87;12.65;;;;;;;10.85;75.15;101303.77;1804381;79;21375;-60
2023/04/10 02:19:32;;;;;;;17.77;12.60;;;;;;;10.83;75.10;101303.58;1796411;79;21353;-60
2023/04/10 02:22:38;;;;;;;15.83;12.28;;;;;;;10.83;75.11;101297.57;1804728;78;21190;-60
2023/04/10 02:25:44;;;;;;;19.98;12.65;;;;;;;10.82;75.12;101308.69;1804475;79;21185;-59
2023/04/10 02:28:51;;;;;;;21.50;13.20;;;;;;;10.79;75.15;101307.63;1804454;79;21158;-60
2023/04/10 02:31:59;;;;;;;18.60;13.32;;;;;;;10.78;75.15;101312.77;1804483;79;21169;-60
2023/04/10 02:35:05;;;;;;;25.23;18.90;;;;;;;10.75;75.18;101310.34;1804322;79;21165;-59
2023/04/10 02:38:11;;;;;;;23.07;15.23;;;;;;;10.75;75.24;101307.59;1804350;79;21304;-60
2023/04/10 02:41:17;;;;;;;22.40;13.15;;;;;;;10.72;75.22;101310.12;1805248;79;21213;-60
2023/04/10 02:44:25;;;;;;;17.05;12.50;;;;;;;10.65;75.16;101314.50;1795015;79;21268;-60
2023/04/10 02:47:31;;;;;;;17.02;12.43;;;;;;;10.64;75.26;101317.40;1802211;79;21325;-59
2023/04/10 02:50:37;;;;;;;17.57;13.35;;;;;;;10.62;75.29;101317.55;1813772;79;21178;-60
2023/04/10 02:53:44;;;;;;;21.02;15.05;;;;;;;10.62;75.29;101320.79;1802933;78;21182;-59
2023/04/10 02:56:54;;;;;;;19.40;13.62;;;;;;;10.59;75.35;101315.97;1802683;79;21190;-57
2023/04/10 03:00:01;;;;;;;18.70;12.95;;;;;;;10.59;75.37;101320.07;1802133;79;21210;-58
2023/04/10 03:03:12;;;;;;;14.98;12.23;;;;;;;10.57;75.34;101322.63;1801525;79;21358;-57
2023/04/10 03:06:22;;;;;;;16.20;12.55;;;;;;;10.54;75.37;101315.56;1802310;78;21181;-58
2023/04/10 03:09:29;;;;;;;26.90;16.87;;;;;;;10.53;75.46;101320.69;1802395;78;21750;-59
2023/04/10 03:12:35;;;;;;;22.25;14.13;;;;;;;10.52;75.55;101320.35;1802526;79;21226;-57
2023/04/10 03:15:41;;;;;;;19.82;13.45;;;;;;;10.53;75.59;101319.33;1802689;79;21236;-58
2023/04/10 03:18:47;;;;;;;18.15;13.43;;;;;;;10.53;75.60;101319.81;1802693;79;21226;-57
2023/04/10 03:21:54;;;;;;;17.82;13.22;;;;;;;10.54;75.58;101320.19;1801926;79;21248;-58
2023/04/10 03:25:00;;;;;;;20.55;13.03;;;;;;;10.53;75.56;101320.69;1802634;79;21174;-58
2023/04/10 03:28:06;;;;;;;15.25;12.25;;;;;;;10.52;75.58;101319.48;1802213;79;21236;-58
2023/04/10 03:31:12;;;;;;;21.05;12.95;;;;;;;10.52;75.55;101316.24;1802095;79;21225;-58
2023/04/10 03:34:21;;;;;;;20.17;14.18;;;;;;;10.52;75.47;101314.87;1802707;78;21189;-58
2023/04/10 03:37:27;;;;;;;17.60;13.35;;;;;;;10.46;75.29;101314.09;1803656;79;21201;-58
2023/04/10 03:40:36;;;;;;;24.60;15.68;;;;;;;10.43;75.26;101318.50;1802790;79;21224;-59
2023/04/10 03:43:46;;;;;;;23.47;13.85;;;;;;;10.45;75.39;101311.50;1803147;79;21169;-58
2023/04/10 03:46:53;;;;;;;19.17;13.83;;;;;;;10.45;75.49;101304.16;1801466;79;21224;-57
2023/04/10 03:50:00;;;;;;;20.92;14.13;;;;;;;10.48;75.48;101309.86;1795445;79;21685;-57
2023/04/10 03:53:08;;;;;;;19.98;13.60;;;;;;;10.50;75.57;101316.89;1802948;79;21174;-58
2023/04/10 03:56:15;;;;;;;23.07;15.20;;;;;;;10.53;75.64;101319.81;1803168;79;21336;-59
2023/04/10 03:59:23;;;;;;;23.10;15.85;;;;;;;10.58;75.68;101320.76;1802468;79;21311;-59
2023/04/10 04:02:32;;;;;;;22.02;13.75;;;;;;;10.62;75.73;101317.55;1802619;79;21233;-59
2023/04/10 04:05:41;;;;;;;18.82;13.15;;;;;;;10.66;75.72;101320.33;1803100;78;21225;-58
2023/04/10 04:08:57;;;;;;;19.85;13.08;;;;;;;10.71;75.72;101319.86;1792247;78;21331;-58
2023/04/10 04:12:07;;;;;;;17.35;12.53;;;;;;;10.74;75.65;101320.42;1803286;79;21244;-58
2023/04/10 04:15:27;;;;;;;19.20;13.40;;;;;;;10.78;75.59;101318.24;1803078;79;21197;-58
2023/04/10 04:18:52;;;;;;;18.25;12.18;;;;;;;10.82;75.61;101322.38;1802751;79;21339;-59
2023/04/10 04:22:02;;;;;;;16.45;11.88;;;;;;;10.84;75.58;101328.08;1802628;79;21371;-60
2023/04/10 04:25:24;;;;;;;27.05;16.70;;;;;;;10.88;75.57;101330.00;1803838;79;21166;-59
2023/04/10 04:28:38;;;;;;;18.52;13.08;;;;;;;10.91;75.47;101331.06;1802520;78;21186;-60
2023/04/10 04:31:47;;;;;;;17.10;12.10;;;;;;;10.94;75.44;101332.12;1798618;79;21197;-58
2023/04/10 04:34:53;;;;;;;17.37;11.90;;;;;;;10.92;75.30;101333.64;1802505;79;21169;-59
2023/04/10 04:37:55;;;;;;;14.23;10.98;;;;;;;10.96;75.32;101336.91;1802259;78;21723;-58
2023/04/10 04:40:54;;;;;;;14.83;11.40;;;;;;;10.99;75.32;101340.73;1803092;79;21176;-59
2023/04/10 04:43:54;;;;;;;16.30;11.40;;;;;;;11.05;75.30;101349.70;1793064;79;21177;-58
2023/04/10 04:46:50;;;;;;;36.88;19.48;;;;;;;11.09;75.30;101351.09;1773084;79;21186;-58
2023/04/10 04:49:57;;;;;;;32.90;18.52;;;;;;;11.16;75.31;101348.10;1732762;82;21193;-59
2023/04/10 04:53:09;;;;;;;15.05;10.45;;;;;;;11.22;75.25;101349.71;1777992;79;21351;-58
2023/04/10 04:56:26;;;;;;;14.85;9.65;;;;;;;11.28;75.14;101361.91;1802862;79;21324;-59
2023/04/10 04:59:51;;;;;;;18.62;11.18;;;;;;;11.34;75.10;101358.54;1766240;81;21268;-58
2023/04/10 05:03:07;;;;;;;16.30;10.30;;;;;;;11.35;74.89;101362.49;1802618;79;21197;-59
2023/04/10 05:06:31;;;;;;;16.65;10.43;;;;;;;11.40;74.90;101361.52;1803130;79;21177;-58
2023/04/10 05:09:40;;;;;;;12.47;10.03;;;;;;;11.48;74.92;101368.98;1801280;79;21193;-57
2023/04/10 05:13:01;;;;;;;17.90;11.70;;;;;;;11.54;74.84;101367.81;1800959;79;21210;-59
2023/04/10 05:16:13;;;;;;;15.35;9.75;;;;;;;11.55;74.76;101364.06;1801560;79;21343;-59
2023/04/10 05:19:24;;;;;;;14.50;9.65;;;;;;;11.60;74.75;101371.81;1778668;79;22071;-57
2023/04/10 05:22:49;;;;;;;17.37;10.60;;;;;;;11.66;74.76;101365.22;1770431;80;21243;-59
2023/04/10 05:26:03;;;;;;;18.48;11.28;;;;;;;11.75;74.74;101367.00;1770023;79;21245;-60
2023/04/10 05:29:19;;;;;;;17.57;12.65;;;;;;;11.83;74.69;101371.19;1769448;80;21220;-60
2023/04/10 05:32:35;;;;;;;15.85;11.15;;;;;;;11.92;74.58;101369.37;1779301;79;21205;-59
2023/04/10 05:35:59;;;;;;;15.72;10.00;;;;;;;11.98;74.54;101365.98;1780386;78;21710;-61
2023/04/10 05:39:24;;;;;;;15.90;10.63;;;;;;;12.03;74.23;101369.11;1778600;79;21279;-61
2023/04/10 05:42:37;;;;;;;11.88;9.65;;;;;;;12.03;74.10;101372.69;1774340;79;21193;-60
2023/04/10 05:45:57;;;;;;;18.92;11.95;;;;;;;12.10;74.14;101370.70;1759383;80;21342;-60
2023/04/10 05:49:16;;;;;;;23.25;11.88;;;;;;;12.19;74.17;101375.21;1749648;79;21368;-59
2023/04/10 05:52:24;;;;;;;18.17;10.45;;;;;;;12.33;74.24;101376.84;1725669;82;21251;-61
2023/04/10 05:55:50;;;;;;;15.63;9.80;;;;;;;12.47;74.24;101380.36;1787816;79;21260;-59
2023/04/10 05:59:07;;;;;;;19.02;9.48;;;;;;;12.56;74.00;101376.61;1785560;79;21245;-60
2023/04/10 06:02:23;;;;;;;14.75;9.40;;;;;;;12.64;74.00;101377.16;1788350;79;21205;-61
2023/04/10 06:05:30;;;;;;;12.88;9.30;;;;;;;12.76;74.02;101386.34;1781508;79;21214;-60
2023/04/10 06:08:36;;;;;;;17.40;10.20;;;;;;;12.91;74.00;101390.66;1772583;80;21209;-59
2023/04/10 06:11:43;;;;;;;16.77;9.88;;;;;;;13.03;73.80;101387.47;1779637;79;21291;-59
2023/04/10 06:14:48;;;;;;;15.45;9.73;;;;;;;13.09;73.56;101389.58;1801976;79;21198;-60
2023/04/10 06:17:57;;;;;;;22.50;12.73;;;;;;;13.19;73.60;101390.27;1803628;79;21781;-60
2023/04/10 06:21:06;;;;;;;19.40;10.85;;;;;;;13.28;73.52;101389.28;1804042;79;21857;-61
2023/04/10 06:24:16;;;;;;;18.27;10.80;;;;;;;13.46;73.59;101394.64;1804498;78;21244;-63
2023/04/10 06:27:24;;;;;;;21.30;10.70;;;;;;;13.65;73.58;101398.45;1776962;79;21280;-60
2023/04/10 06:30:33;;;;;;;16.45;9.20;;;;;;;13.82;73.39;101398.80;1803688;78;21201;-62
2023/04/10 06:33:40;;;;;;;17.10;9.73;;;;;;;13.99;73.24;101391.37;1742337;81;21204;-61
2023/04/10 06:36:47;;;;;;;18.05;10.82;;;;;;;14.11;73.05;101396.88;1793125;79;21417;-61
2023/04/10 06:39:52;;;;;;;14.30;7.90;;;;;;;14.17;72.80;101392.92;1779521;79;21823;-63
2023/04/10 06:42:58;;;;;;;12.93;7.67;;;;;;;14.24;72.74;101388.45;1797611;79;21197;-61
2023/04/10 06:46:05;;;;;;;10.68;7.12;;;;;;;14.28;72.61;101402.23;1796940;79;21602;-62
2023/04/10 06:49:11;;;;;;;11.33;7.85;;;;;;;14.32;72.48;101398.08;1771941;79;21217;-61
2023/04/10 06:52:15;;;;;;;11.28;7.08;;;;;;;14.38;72.50;101400.66;1769072;79;21209;-63
2023/04/10 06:55:22;;;;;;;14.35;8.63;;;;;;;14.46;72.53;101404.78;1777709;78;21213;-62
2023/04/10 06:58:27;;;;;;;9.30;7.00;;;;;;;14.56;72.54;101406.80;1769494;80;21154;-58
2023/04/10 07:01:34;;;;;;;14.65;6.97;;;;;;;14.65;72.43;101396.11;1773964;79;21193;-63
2023/04/10 07:04:40;;;;;;;13.72;6.15;;;;;;;14.74;72.36;101394.52;1778423;79;21696;-60
2023/04/10 07:07:49;;;;;;;12.15;6.33;;;;;;;14.80;72.24;101399.83;1784232;79;21201;-61
2023/04/10 07:10:55;;;;;;;10.03;5.05;;;;;;;14.78;71.83;101400.52;1743164;80;21765;-63
2023/04/10 07:14:01;;;;;;;9.08;5.40;;;;;;;14.81;71.91;101395.52;1723442;82;21198;-62
2023/04/10 07:17:08;;;;;;;8.88;6.17;;;;;;;14.89;71.92;101395.98;1699361;83;21769;-62
2023/04/10 07:20:16;;;;;;;9.10;4.92;;;;;;;15.03;71.92;101389.75;1723283;82;21284;-63
2023/04/10 07:23:22;;;;;;;10.90;4.80;;;;;;;15.20;71.93;101395.50;1718292;82;21859;-63
2023/04/10 07:26:28;;;;;;;10.60;4.72;;;;;;;15.24;71.58;101389.95;1728214;82;21296;-61
2023/04/10 07:29:35;;;;;;;6.90;4.10;;;;;;;15.32;71.57;101385.77;1756101;81;21251;-60
2023/04/10 07:32:41;;;;;;;7.28;4.55;;;;;;;15.43;71.40;101392.27;1724399;82;21237;-61
2023/04/10 07:35:48;;;;;;;11.38;4.72;;;;;;;15.50;71.24;101389.14;1725307;82;21214;-61
2023/04/10 07:38:54;;;;;;;7.67;4.28;;;;;;;15.60;71.25;101389.73;1729852;82;21186;-62
2023/04/10 07:42:01;;;;;;;13.45;5.17;;;;;;;15.70;71.12;101393.12;1777931;79;21252;-62
2023/04/10 07:45:07;;;;;;;7.20;4.03;;;;;;;15.72;70.78;101382.76;1724389;81;21223;-64
2023/04/10 07:48:13;;;;;;;11.25;5.15;;;;;;;15.80;70.69;101384.58;1721567;82;21247;-65
2023/04/10 07:51:19;;;;;;;10.48;5.10;;;;;;;15.84;70.60;101385.41;1712370;80;21209;-63
2023/04/10 07:54:25;;;;;;;14.60;5.70;;;;;;;15.93;70.49;101367.74;1774865;79;21359;-65
2023/04/10 07:57:32;;;;;;;10.43;5.40;;;;;;;15.99;70.27;101371.12;1774903;79;21268;-56
2023/04/10 08:00:40;;;;;;;8.53;4.85;;;;;;;16.08;70.30;101372.77;1775336;78;21193;-56
2023/04/10 08:03:49;;;;;;;12.65;5.17;;;;;;;16.15;70.12;101361.31;1784633;79;21707;-57
2023/04/10 08:06:56;;;;;;;16.45;5.00;;;;;;;16.19;69.88;101369.55;1784155;79;21706;-56
2023/04/10 08:10:04;;;;;;;8.80;5.28;;;;;;;16.26;69.68;101362.23;1775748;79;21232;-55
2023/04/10 08:13:12;;;;;;;10.78;8.45;;;;;;;16.32;69.40;101366.13;1778940;79;21252;-56
2023/04/10 08:16:18;;;;;;;10.05;6.00;;;;;;;16.38;69.33;101353.79;1787317;79;21295;-55
2023/04/10 08:19:25;;;;;;;8.60;5.17;;;;;;;16.52;69.38;101356.80;1781124;79;21193;-55
2023/04/10 08:22:31;;;;;;;10.95;5.15;;;;;;;16.64;69.09;101356.13;1775419;79;21762;-56
2023/04/10 08:25:38;;;;;;;10.23;5.03;;;;;;;16.68;68.82;101350.53;1794413;79;21217;-62
2023/04/10 08:28:46;;;;;;;9.08;4.87;;;;;;;16.75;68.63;101348.72;1773679;79;21240;-64
2023/04/10 08:31:53;;;;;;;8.98;5.03;;;;;;;16.87;68.50;101343.02;1785639;79;21373;-61
2023/04/10 08:34:59;;;;;;;10.28;5.03;;;;;;;16.86;68.14;101345.98;1777643;79;21209;-60
2023/04/10 08:38:05;;;;;;;11.60;6.10;;;;;;;16.90;68.04;101348.19;1758745;79;21252;-60
2023/04/10 08:41:12;;;;;;;6.08;4.85;;;;;;;17.01;67.92;101342.67;1770874;79;21283;-61
2023/04/10 08:44:19;;;;;;;8.55;4.47;;;;;;;17.10;67.61;101335.45;1784064;79;21185;-63
2023/04/10 08:47:27;;;;;;;7.72;5.00;;;;;;;17.13;67.39;101332.80;1752112;81;21204;-63
2023/04/10 08:50:34;;;;;;;9.23;5.17;;;;;;;17.19;67.28;101347.23;1770941;79;21201;-64
2023/04/10 08:53:40;;;;;;;7.22;4.37;;;;;;;17.27;67.15;101336.91;1800809;78;21202;-67
2023/04/10 08:56:45;;;;;;;8.90;4.80;;;;;;;17.33;66.84;101329.75;1801538;79;21734;-62
2023/04/10 08:59:52;;;;;;;7.45;4.92;;;;;;;17.26;66.29;101333.83;1784105;78;21252;-62
2023/04/10 09:03:03;;;;;;;8.08;5.40;;;;;;;17.16;66.04;101336.56;1726484;81;21220;-63
2023/04/10 09:06:12;;;;;;;8.88;5.65;;;;;;;17.08;65.93;101325.61;1723767;82;21217;-63
2023/04/10 09:09:19;;;;;;;9.78;5.53;;;;;;;17.11;65.92;101329.41;1797459;78;21770;-64
2023/04/10 09:12:28;;;;;;;8.98;4.75;;;;;;;17.10;65.67;101316.08;1787932;79;21233;-64
2023/04/10 09:15:36;;;;;;;6.47;4.70;;;;;;;17.02;65.33;101315.33;1777989;79;21869;-63
2023/04/10 09:18:56;;;;;;;7.28;4.40;;;;;;;17.00;65.28;101320.23;1772366;79;21754;-63
2023/04/10 09:22:04;;;;;;;7.30;4.80;;;;;;;17.12;65.30;101317.27;1800863;79;21185;-63
2023/04/10 09:25:10;;;;;;;8.33;5.03;;;;;;;17.25;65.11;101316.03;1793913;79;21186;-62
2023/04/10 09:28:16;;;;;;;9.65;5.15;;;;;;;17.37;64.82;101318.61;1800794;79;21318;-63
2023/04/10 09:31:37;;;;;;;9.75;5.00;;;;;;;17.60;64.70;101312.39;1792824;79;21746;-64
2023/04/10 09:34:51;;;;;;;7.95;5.10;;;;;;;17.73;64.28;101316.64;1801342;79;21158;-61
2023/04/10 09:37:57;;;;;;;9.07;5.10;;;;;;;17.82;64.06;101312.14;1789427;77;21742;-65
2023/04/10 09:41:13;;;;;;;10.13;5.10;;;;;;;18.04;63.95;101297.73;1801203;78;21759;-63
2023/04/10 09:44:18;;;;;;;8.63;5.53;;;;;;;18.20;63.68;101295.18;1795264;79;21182;-66
2023/04/10 09:47:26;;;;;;;8.48;4.80;;;;;;;18.37;63.41;101297.95;1785965;78;21767;-67
2023/04/10 09:50:43;;;;;;;10.35;5.22;;;;;;;18.50;63.20;101289.74;1770125;80;21214;-61
2023/04/10 09:53:56;;;;;;;7.97;5.33;;;;;;;18.50;62.69;101293.91;1767917;79;21243;-62
2023/04/10 09:57:02;;;;;;;10.20;5.58;;;;;;;18.53;62.34;101287.94;1775080;79;21434;-63
2023/04/10 10:00:13;;;;;;;11.33;5.85;;;;;;;18.50;62.02;101289.22;1784447;78;21178;-63
2023/04/10 10:03:26;;;;;;;10.18;5.85;;;;;;;18.56;61.97;101287.01;1774901;79;21221;-61
2023/04/10 10:06:32;;;;;;;9.23;5.42;;;;;;;18.68;61.82;101279.80;1771738;79;21852;-64
2023/04/10 10:09:38;;;;;;;10.55;4.92;;;;;;;18.73;61.45;101281.42;1787322;78;21194;-63
2023/04/10 10:13:08;;;;;;;8.03;5.30;;;;;;;18.76;61.18;101278.23;1769523;81;21367;-61
2023/04/10 10:16:28;;;;;;;8.65;5.60;;;;;;;18.77;60.79;101279.10;1779748;79;21232;-61
2023/04/10 10:20:08;;;;;;;13.13;6.03;;;;;;;18.71;60.48;101265.52;1772293;79;21169;-59
2023/04/10 10:23:16;;;;;;;10.35;6.12;;;;;;;18.63;60.34;101268.45;1709938;81;21275;-61
2023/04/10 10:26:24;;;;;;;7.65;5.95;;;;;;;18.55;60.17;101271.96;1773666;79;21197;-60
2023/04/10 10:29:29;;;;;;;8.28;5.97;;;;;;;18.57;59.96;101272.06;1802314;79;21169;-61
2023/04/10 10:32:36;;;;;;;7.17;6.00;;;;;;;18.69;59.81;101262.63;1774746;79;21363;-60
2023/04/10 10:35:44;;;;;;;10.13;6.15;;;;;;;18.80;59.46;101260.13;1770176;81;21216;-62
2023/04/10 10:39:21;;;;;;;8.50;6.08;;;;;;;18.80;58.97;101247.64;1769807;80;21202;-62
2023/04/10 10:43:03;;;;;;;13.40;5.75;;;;;;;18.83;58.73;101251.91;1776893;79;21200;-60
2023/04/10 10:46:17;;;;;;;7.83;5.72;;;;;;;19.01;58.60;101254.41;1801899;79;21194;-62
2023/04/10 10:49:24;;;;;;;11.15;5.83;;;;;;;19.19;58.30;101246.87;1740585;81;21201;-61
2023/04/10 10:53:00;;;;;;;8.43;5.85;;;;;;;19.45;58.04;101236.37;1781678;79;21193;-60
2023/04/10 10:56:02;;;;;;;10.35;6.85;;;;;;;19.74;57.88;101242.90;1801270;79;21236;-61
2023/04/10 10:59:08;;;;;;;12.53;6.53;;;;;;;19.99;57.47;101236.98;1778718;79;21869;-57
2023/04/10 11:02:24;;;;;;;9.53;6.10;;;;;;;20.09;56.87;101229.91;1801564;78;21297;-59
2023/04/10 11:05:55;;;;;;;7.25;5.97;;;;;;;20.22;56.66;101231.83;1797690;79;21542;-58
2023/04/10 11:09:01;;;;;;;9.03;6.37;;;;;;;20.43;56.43;101231.56;1778276;79;21174;-58
2023/04/10 11:12:09;;;;;;;10.05;6.25;;;;;;;20.52;55.76;101224.66;1801221;79;21272;-60
2023/04/10 11:15:17;;;;;;;9.33;6.30;;;;;;;20.50;55.48;101226.84;1801555;79;21707;-57
2023/04/10 11:18:23;;;;;;;11.95;6.83;;;;;;;20.63;55.33;101223.98;1792801;79;21366;-58
2023/04/10 11:21:30;;;;;;;9.93;6.28;;;;;;;20.72;54.96;101224.06;1795497;79;21841;-65
2023/04/10 11:24:38;;;;;;;8.53;5.97;;;;;;;20.77;54.59;101215.91;1733220;81;21479;-65
2023/04/10 11:27:52;;;;;;;13.22;6.03;;;;;;;20.71;54.10;101225.12;1732354;81;21212;-68
2023/04/10 11:30:58;;;;;;;8.90;6.08;;;;;;;20.68;53.83;101224.17;1719601;83;21630;-60
2023/04/10 11:34:14;;;;;;;10.63;6.15;;;;;;;20.76;53.74;101215.05;1770597;79;21201;-59
2023/04/10 11:37:23;;;;;;;8.93;6.83;;;;;;;20.80;53.26;101207.94;1789768;79;21570;-58
2023/04/10 11:40:28;;;;;;;9.50;5.92;;;;;;;20.81;53.06;101210.20;1782279;79;21229;-67
2023/04/10 11:43:33;;;;;;;9.50;5.80;;;;;;;20.97;52.97;101204.14;1780460;79;21202;-66
2023/04/10 11:46:49;;;;;;;11.43;6.70;;;;;;;21.14;52.74;101190.52;1778753;79;21228;-69
2023/04/10 11:49:59;;;;;;;9.95;6.40;;;;;;;21.29;52.50;101198.89;1776347;79;21187;-67
2023/04/10 11:53:06;;;;;;;11.55;5.65;;;;;;;21.36;52.05;101192.72;1780485;79;21185;-62
2023/04/10 11:56:11;;;;;;;10.78;5.90;;;;;;;21.28;51.51;101187.42;1786181;79;21551;-67
2023/04/10 11:59:18;;;;;;;10.40;6.00;;;;;;;21.21;51.14;101185.77;1778390;79;21389;-67
2023/04/10 12:02:25;;;;;;;13.32;7.53;;;;;;;21.11;50.73;101184.02;1781574;79;21824;-67
2023/04/10 12:05:32;;;;;;;11.30;5.92;;;;;;;21.00;50.56;101174.46;1778461;79;21210;-66
2023/04/10 12:08:41;;;;;;;10.50;5.75;;;;;;;21.08;50.54;101178.37;1798314;79;21177;-68
2023/04/10 12:11:59;;;;;;;11.20;5.55;;;;;;;21.16;50.33;101173.06;1786795;79;21358;-64
2023/04/10 12:15:05;;;;;;;8.05;5.85;;;;;;;21.07;49.77;101163.28;1771174;79;21228;-62
2023/04/10 12:18:12;;;;;;;10.48;7.60;;;;;;;20.84;49.29;101161.04;1785313;79;21727;-65
2023/04/10 12:21:20;;;;;;;11.03;5.83;;;;;;;20.66;49.08;101166.52;1774773;79;21244;-67
2023/04/10 12:24:56;;;;;;;11.53;6.00;;;;;;;20.62;48.99;101157.75;1775049;79;21220;-68
2023/04/10 12:28:04;;;;;;;8.18;6.10;;;;;;;20.64;48.80;101156.97;1770791;79;21571;-67
2023/04/10 12:31:10;;;;;;;10.65;5.78;;;;;;;20.79;48.70;101158.06;1769188;79;21210;-64
2023/04/10 12:34:16;;;;;;;10.32;5.85;;;;;;;20.91;48.51;101149.34;1792362;78;21715;-66
2023/04/10 12:37:21;;;;;;;8.50;5.75;;;;;;;21.06;48.31;101140.14;1793985;79;21190;-60
2023/04/10 12:40:27;;;;;;;10.50;6.37;;;;;;;21.16;48.10;101136.33;1775706;79;21546;-67
2023/04/10 12:43:40;;;;;;;12.93;6.53;;;;;;;21.31;47.83;101137.39;1794337;79;21999;-66
2023/04/10 12:46:37;;;;;;;10.30;6.10;;;;;;;21.28;47.42;101137.84;1763698;79;21209;-67
2023/04/10 12:49:24;;;;;;;11.25;5.55;;;;;;;21.37;47.32;101131.77;1796445;78;21849;-66
2023/04/10 12:52:31;;;;;;;12.10;5.35;;;;;;;21.36;46.90;101133.38;1776363;79;21197;-66
2023/04/10 12:55:37;;;;;;;8.68;6.58;;;;;;;21.26;46.63;101129.72;1769415;80;22029;-66
2023/04/10 12:58:43;;;;;;;11.60;5.78;;;;;;;21.13;46.24;101121.47;1774916;79;21741;-67
2023/04/10 13:01:49;;;;;;;7.83;5.53;;;;;;;21.03;46.10;101116.93;1790390;78;21347;-67
2023/04/10 13:04:58;;;;;;;11.57;5.83;;;;;;;20.91;45.82;101118.71;1796903;79;21213;-65
2023/04/10 13:08:07;;;;;;;9.85;5.97;;;;;;;20.85;45.80;101111.27;1787259;79;21236;-66
2023/04/10 13:11:13;;;;;;;10.32;5.97;;;;;;;20.86;45.70;101112.96;1763832;81;21165;-68
2023/04/10 13:14:18;;;;;;;12.30;5.92;;;;;;;20.91;45.53;101109.50;1708279;82;21194;-66
2023/04/10 13:17:27;;;;;;;9.98;5.87;;;;;;;20.86;45.20;101112.96;1782121;79;21201;-70
2023/04/10 13:20:35;;;;;;;11.18;5.72;;;;;;;20.76;44.94;101107.03;1782403;79;21244;-64
2023/04/10 13:23:41;;;;;;;8.20;5.75;;;;;;;20.73;44.86;101106.09;1788369;79;21205;-60
2023/04/10 13:26:48;;;;;;;9.80;6.33;;;;;;;20.87;44.81;101095.17;1794509;79;21174;-69
2023/04/10 13:29:55;;;;;;;12.45;6.67;;;;;;;21.00;44.57;101095.11;1792947;79;21173;-66
2023/04/10 13:33:02;;;;;;;9.13;5.53;;;;;;;20.98;44.24;101090.30;1800459;79;21463;-69
2023/04/10 13:36:07;;;;;;;13.18;6.00;;;;;;;20.91;44.14;101083.92;1783372;79;21769;-65
2023/04/10 13:39:17;;;;;;;10.35;6.25;;;;;;;21.04;44.15;101074.07;1786468;79;21225;-69
2023/04/10 13:42:23;;;;;;;10.98;6.15;;;;;;;21.20;44.00;101083.25;1784576;79;21181;-70
2023/04/10 13:45:28;;;;;;;9.00;5.80;;;;;;;21.19;43.64;101082.09;1799175;79;21189;-70
2023/04/10 13:48:39;;;;;;;14.13;6.62;;;;;;;20.97;43.25;101073.30;1783356;79;21197;-65
2023/04/10 13:51:43;;;;;;;13.28;6.58;;;;;;;20.58;42.84;101077.73;1796725;78;21370;-68
2023/04/10 13:54:51;;;;;;;10.50;5.72;;;;;;;20.36;42.88;101070.81;1799677;79;21707;-70
2023/04/10 13:57:57;;;;;;;10.15;5.83;;;;;;;20.25;42.80;101066.78;1786739;79;21221;-66
2023/04/10 14:01:03;;;;;;;11.45;6.12;;;;;;;20.15;42.67;101070.58;1777785;79;21248;-63
2023/04/10 14:04:11;;;;;;;8.30;5.90;;;;;;;20.07;42.59;101069.96;1714161;81;21563;-68
2023/04/10 14:07:18;;;;;;;10.08;5.40;;;;;;;19.88;42.35;101062.55;1770209;81;21193;-68
2023/04/10 14:10:24;;;;;;;10.32;5.97;;;;;;;19.68;42.21;101059.00;1779166;79;21193;-69
2023/04/10 14:13:30;;;;;;;11.15;5.83;;;;;;;19.65;42.23;101059.41;1784092;78;21202;-65
2023/04/10 14:16:35;;;;;;;10.63;6.10;;;;;;;19.81;42.23;101058.94;1786181;79;21221;-63
2023/04/10 14:19:42;;;;;;;8.83;5.35;;;;;;;20.12;42.10;101059.86;1770588;79;21746;-65
2023/04/10 14:22:49;;;;;;;12.95;5.33;;;;;;;20.42;41.84;101050.45;1770618;79;21757;-63
2023/04/10 14:25:56;;;;;;;11.40;5.95;;;;;;;20.83;41.62;101047.14;1774643;79;22064;-64
2023/04/10 14:29:01;;;;;;;9.00;5.42;;;;;;;21.14;41.37;101052.67;1771114;80;21193;-66